createdAt,value
2024-03-24T00:00:25.264Z,87.9
2024-03-24T00:01:31.368Z,87.3
2024-03-24T00:02:37.473Z,87.3
2024-03-24T00:03:43.578Z,87.1
2024-03-24T00:04:49.683Z,87.2
2024-03-24T00:05:55.789Z,87.2
2024-03-24T00:07:01.893Z,87.3
2024-03-24T00:08:07.998Z,86.9
2024-03-24T00:09:14.103Z,87.5
2024-03-24T00:10:20.187Z,87
2024-03-24T00:11:26.311Z,87.3
2024-03-24T00:12:32.415Z,87.6
2024-03-24T00:13:38.758Z,88.5
2024-03-24T00:14:43.864Z,88
2024-03-24T00:15:49.984Z,87.4
2024-03-24T00:16:56.089Z,88.2
2024-03-24T00:18:02.194Z,88.5
2024-03-24T00:19:08.299Z,88.2
2024-03-24T00:20:14.398Z,88.3
2024-03-24T00:21:20.509Z,87.9
2024-03-24T00:22:26.613Z,88.3
2024-03-24T00:23:32.718Z,88.3
2024-03-24T00:24:38.823Z,88.6
2024-03-24T00:25:44.927Z,89
2024-03-24T00:26:51.031Z,88.4
2024-03-24T00:27:57.135Z,88.2
2024-03-24T00:29:03.479Z,88
2024-03-24T00:30:08.600Z,88.1
2024-03-24T00:31:14.705Z,87.9
2024-03-24T00:32:20.810Z,87.7
2024-03-24T00:33:26.914Z,88
2024-03-24T00:34:33.020Z,88
2024-03-24T00:35:39.124Z,87.7
2024-03-24T00:36:45.229Z,87.5
2024-03-24T00:37:51.334Z,87.8
2024-03-24T00:38:57.439Z,87.8
2024-03-24T00:40:03.544Z,87.6
2024-03-24T00:41:09.647Z,87.4
2024-03-24T00:42:15.751Z,87.3
2024-03-24T00:43:21.856Z,87.3
2024-03-24T00:44:28.186Z,87.5
2024-03-24T00:45:33.320Z,87.5
2024-03-24T00:46:39.424Z,87.5
2024-03-24T00:47:45.529Z,87.5
2024-03-24T00:48:50.655Z,87.2
2024-03-24T00:49:56.760Z,87.2
2024-03-24T00:51:02.865Z,87.5
2024-03-24T00:52:08.969Z,87.3
2024-03-24T00:53:15.073Z,87.3
2024-03-24T00:54:21.177Z,87.5
2024-03-24T00:55:27.511Z,87.7
2024-03-24T00:56:33.615Z,87
2024-03-24T00:57:39.720Z,87
2024-03-24T00:58:45.825Z,86.8
2024-03-24T00:59:51.917Z,86.8
2024-03-24T01:00:58.035Z,87
2024-03-24T01:02:04.140Z,86.9
2024-03-24T01:03:09.261Z,86.5
2024-03-24T01:04:15.366Z,86.5
2024-03-24T01:05:21.471Z,86.6
2024-03-24T01:06:27.576Z,86.7
2024-03-24T01:07:33.680Z,86.5
2024-03-24T01:08:39.784Z,86.3
2024-03-24T01:09:45.874Z,86.7
2024-03-24T01:10:52.231Z,87.2
2024-03-24T01:11:58.336Z,86.8
2024-03-24T01:13:04.441Z,86.8
2024-03-24T01:14:10.546Z,86.7
2024-03-24T01:15:16.651Z,86.9
2024-03-24T01:16:22.755Z,87.2
2024-03-24T01:17:27.876Z,86.7
2024-03-24T01:18:33.981Z,86.8
2024-03-24T01:19:40.086Z,86.8
2024-03-24T01:20:46.191Z,86.7
2024-03-24T01:21:52.297Z,86.4
2024-03-24T01:22:58.401Z,86.6
2024-03-24T01:24:04.505Z,86.5
2024-03-24T01:25:10.608Z,86.4
2024-03-24T01:26:16.952Z,86.4
2024-03-24T01:27:23.056Z,86.4
2024-03-24T01:28:29.161Z,86.3
2024-03-24T01:29:35.260Z,86.5
2024-03-24T01:30:41.371Z,86.4
2024-03-24T01:31:46.491Z,86.8
2024-03-24T01:32:52.597Z,86.8
2024-03-24T01:33:58.702Z,86.7
2024-03-24T01:35:04.807Z,86.8
2024-03-24T01:36:10.912Z,87.1
2024-03-24T01:37:17.016Z,87.1
2024-03-24T01:38:23.120Z,87.2
2024-03-24T01:39:29.224Z,87.2
2024-03-24T01:40:35.328Z,87.6
2024-03-24T01:41:41.672Z,87.6
2024-03-24T01:42:47.777Z,87.9
2024-03-24T01:43:53.871Z,88.1
2024-03-24T01:44:59.987Z,88.4
2024-03-24T01:46:05.108Z,88
2024-03-24T01:47:11.213Z,88.4
2024-03-24T01:48:17.318Z,88.6
2024-03-24T01:49:23.423Z,88.3
2024-03-24T01:50:29.528Z,88.5
2024-03-24T01:51:35.633Z,88.5
2024-03-24T01:52:41.738Z,88.5
2024-03-24T01:53:47.835Z,89.1
2024-03-24T01:54:53.945Z,88.7
2024-03-24T01:56:00.049Z,88.8
2024-03-24T01:57:06.393Z,89.1
2024-03-24T01:58:12.498Z,88.9
2024-03-24T01:59:18.603Z,89.2
2024-03-24T02:00:23.724Z,88.9
2024-03-24T02:01:29.829Z,89.5
2024-03-24T02:02:35.933Z,89
2024-03-24T02:03:42.038Z,89.2
2024-03-24T02:04:48.143Z,88.5
2024-03-24T02:05:54.249Z,88.8
2024-03-24T02:07:00.354Z,88.7
2024-03-24T02:08:06.459Z,89
2024-03-24T02:09:12.559Z,88.5
2024-03-24T02:10:18.667Z,88.7
2024-03-24T02:11:24.771Z,88.8
2024-03-24T02:12:31.115Z,88.7
2024-03-24T02:13:37.220Z,88.3
2024-03-24T02:14:42.340Z,88.2
2024-03-24T02:15:48.445Z,88.2
2024-03-24T02:16:54.550Z,88.1
2024-03-24T02:18:00.655Z,87.9
2024-03-24T02:19:06.760Z,87.8
2024-03-24T02:20:12.865Z,87.7
2024-03-24T02:21:18.970Z,87.8
2024-03-24T02:22:25.075Z,87.5
2024-03-24T02:23:31.179Z,87.8
2024-03-24T02:24:37.283Z,87.7
2024-03-24T02:25:43.387Z,87.8
2024-03-24T02:26:49.490Z,87.7
2024-03-24T02:27:55.835Z,87.7
2024-03-24T02:29:00.956Z,87.4
2024-03-24T02:30:07.061Z,87.1
2024-03-24T02:31:13.166Z,86.8
2024-03-24T02:32:19.271Z,87.3
2024-03-24T02:33:25.376Z,86.9
2024-03-24T02:34:31.481Z,87.3
2024-03-24T02:35:37.586Z,86.9
2024-03-24T02:36:43.690Z,86.8
2024-03-24T02:37:49.795Z,87.1
2024-03-24T02:38:55.886Z,86.9
2024-03-24T02:40:02.004Z,86.7
2024-03-24T02:41:08.108Z,87
2024-03-24T02:42:14.212Z,87
2024-03-24T02:43:20.543Z,87.1
2024-03-24T02:44:25.677Z,87.1
2024-03-24T02:45:31.782Z,86.8
2024-03-24T02:46:37.886Z,86.9
2024-03-24T02:47:43.991Z,86.9
2024-03-24T02:48:50.096Z,86.9
2024-03-24T02:49:56.201Z,87
2024-03-24T02:51:02.306Z,87.1
2024-03-24T02:52:08.411Z,86.8
2024-03-24T02:53:14.515Z,87
2024-03-24T02:54:20.620Z,86.9
2024-03-24T02:55:26.724Z,86.3
2024-03-24T02:56:32.828Z,86.5
2024-03-24T02:57:38.933Z,86.2
2024-03-24T02:58:45.278Z,86.5
2024-03-24T02:59:50.399Z,86.4
2024-03-24T03:00:56.504Z,86.1
2024-03-24T03:02:02.608Z,85.9
2024-03-24T03:03:08.714Z,86
2024-03-24T03:04:14.818Z,86
2024-03-24T03:05:20.924Z,85.8
2024-03-24T03:06:27.029Z,86.1
2024-03-24T03:07:33.134Z,86.5
2024-03-24T03:08:39.240Z,86
2024-03-24T03:09:45.345Z,86.1
2024-03-24T03:10:51.449Z,86.5
2024-03-24T03:11:57.553Z,85.9
2024-03-24T03:13:03.657Z,86
2024-03-24T03:14:10.001Z,86.5
2024-03-24T03:15:15.122Z,86.2
2024-03-24T03:16:21.227Z,86.3
2024-03-24T03:17:27.312Z,86.3
2024-03-24T03:18:33.437Z,86.4
2024-03-24T03:19:39.542Z,86.5
2024-03-24T03:20:45.646Z,86.2
2024-03-24T03:21:51.751Z,85.8
2024-03-24T03:22:57.853Z,85.7
2024-03-24T03:24:03.961Z,86
2024-03-24T03:25:10.066Z,85.7
2024-03-24T03:26:16.170Z,85.9
2024-03-24T03:27:22.274Z,85.8
2024-03-24T03:28:28.356Z,85.7
2024-03-24T03:29:34.722Z,86
2024-03-24T03:30:39.843Z,85.7
2024-03-24T03:31:45.948Z,85.8
2024-03-24T03:32:52.030Z,85.5
2024-03-24T03:33:58.158Z,86.1
2024-03-24T03:35:04.263Z,85.7
2024-03-24T03:36:10.368Z,85.9
2024-03-24T03:37:16.473Z,85.5
2024-03-24T03:38:22.566Z,86
2024-03-24T03:39:28.683Z,85.9
2024-03-24T03:40:34.788Z,86.3
2024-03-24T03:41:40.872Z,86.3
2024-03-24T03:42:46.996Z,86.2
2024-03-24T03:43:53.100Z,86.7
2024-03-24T03:44:59.445Z,86.5
2024-03-24T03:46:04.566Z,86.4
2024-03-24T03:47:10.671Z,86.7
2024-03-24T03:48:16.754Z,86.4
2024-03-24T03:49:22.880Z,86.5
2024-03-24T03:50:28.985Z,86.3
2024-03-24T03:51:35.090Z,86.3
2024-03-24T03:52:41.182Z,86.3
2024-03-24T03:53:47.300Z,86.2
2024-03-24T03:54:53.405Z,86
2024-03-24T03:55:59.510Z,86.2
2024-03-24T03:57:05.614Z,86.5
2024-03-24T03:58:11.715Z,85.8
2024-03-24T03:59:17.821Z,85.7
2024-03-24T04:00:24.165Z,86.1
2024-03-24T04:01:29.286Z,86.2
2024-03-24T04:02:35.379Z,85.8
2024-03-24T04:03:41.496Z,86.2
2024-03-24T04:04:47.601Z,85.8
2024-03-24T04:05:53.706Z,85.9
2024-03-24T04:06:59.811Z,86
2024-03-24T04:08:05.916Z,86.3
2024-03-24T04:09:12.021Z,85.7
2024-03-24T04:10:18.125Z,85.8
2024-03-24T04:11:24.230Z,86.2
2024-03-24T04:12:30.334Z,85.7
2024-03-24T04:13:36.438Z,85.8
2024-03-24T04:14:42.542Z,85.9
2024-03-24T04:15:48.885Z,85.9
2024-03-24T04:16:54.006Z,85.7
2024-03-24T04:18:00.109Z,85.7
2024-03-24T04:19:06.216Z,85.9
2024-03-24T04:20:12.320Z,86
2024-03-24T04:21:18.425Z,86.2
2024-03-24T04:22:24.524Z,86.5
2024-03-24T04:23:30.636Z,86.6
2024-03-24T04:24:36.740Z,86.7
2024-03-24T04:25:42.845Z,86.4
2024-03-24T04:26:48.950Z,86.7
2024-03-24T04:27:55.055Z,86.9
2024-03-24T04:29:01.160Z,86.5
2024-03-24T04:30:06.286Z,86.7
2024-03-24T04:31:12.391Z,86.6
2024-03-24T04:32:18.496Z,86.3
2024-03-24T04:33:24.601Z,86.4
2024-03-24T04:34:30.706Z,86.8
2024-03-24T04:35:36.811Z,86.4
2024-03-24T04:36:42.915Z,86.2
2024-03-24T04:37:49.020Z,86.3
2024-03-24T04:38:55.125Z,86.5
2024-03-24T04:40:01.230Z,86.7
2024-03-24T04:41:07.335Z,87
2024-03-24T04:42:13.440Z,86.8
2024-03-24T04:43:19.545Z,87.1
2024-03-24T04:44:24.666Z,86.5
2024-03-24T04:45:30.848Z,86.3
2024-03-24T04:46:37.002Z,86.2
2024-03-24T04:47:43.107Z,86.2
2024-03-24T04:48:49.273Z,86.1
2024-03-24T04:49:55.427Z,86.2
2024-03-24T04:51:01.532Z,86.2
2024-03-24T04:52:07.699Z,86.2
2024-03-24T04:53:13.853Z,86.1
2024-03-24T04:54:19.958Z,86.7
2024-03-24T04:55:26.124Z,86.3
2024-03-24T04:56:32.279Z,86.1
2024-03-24T04:57:38.384Z,86.4
2024-03-24T04:58:43.505Z,86.3
2024-03-24T04:59:49.610Z,86.8
2024-03-24T05:00:55.716Z,86.3
2024-03-24T05:02:01.830Z,86.1
2024-03-24T05:03:07.984Z,86.1
2024-03-24T05:04:14.089Z,86.3
2024-03-24T05:05:20.255Z,86.4
2024-03-24T05:06:26.410Z,86.2
2024-03-24T05:07:32.515Z,86.1
2024-03-24T05:08:38.681Z,85.5
2024-03-24T05:09:44.836Z,86
2024-03-24T05:10:50.941Z,85.9
2024-03-24T05:11:57.107Z,85.2
2024-03-24T05:13:02.228Z,85.5
2024-03-24T05:14:08.333Z,85.2
2024-03-24T05:15:14.439Z,85.3
2024-03-24T05:16:20.544Z,85.8
2024-03-24T05:17:26.648Z,86.1
2024-03-24T05:18:32.812Z,85.8
2024-03-24T05:19:38.966Z,85.8
2024-03-24T05:20:45.072Z,86.2
2024-03-24T05:21:51.238Z,86.2
2024-03-24T05:22:57.392Z,86.1
2024-03-24T05:24:03.497Z,86.1
2024-03-24T05:25:09.664Z,86.1
2024-03-24T05:26:15.819Z,86
2024-03-24T05:27:20.940Z,86
2024-03-24T05:28:27.045Z,86.3
2024-03-24T05:29:33.150Z,85.9
2024-03-24T05:30:39.250Z,86.2
2024-03-24T05:31:45.370Z,86.3
2024-03-24T05:32:51.524Z,86.3
2024-03-24T05:33:57.620Z,86.1
2024-03-24T05:35:03.795Z,86.1
2024-03-24T05:36:09.950Z,85.8
2024-03-24T05:37:16.054Z,85.6
2024-03-24T05:38:22.210Z,85.6
2024-03-24T05:39:28.376Z,85.5
2024-03-24T05:40:34.481Z,85.7
2024-03-24T05:41:39.602Z,85.8
2024-03-24T05:42:45.707Z,85.8
2024-03-24T05:43:51.812Z,85.5
2024-03-24T05:44:57.926Z,85.7
2024-03-24T05:46:04.080Z,85.8
2024-03-24T05:47:10.172Z,85.5
2024-03-24T05:48:16.353Z,85.3
2024-03-24T05:49:22.507Z,85.4
2024-03-24T05:50:28.612Z,85.6
2024-03-24T05:51:34.779Z,85.2
2024-03-24T05:52:40.933Z,84.6
2024-03-24T05:53:47.038Z,84.8
2024-03-24T05:54:53.205Z,84.5
2024-03-24T05:55:58.326Z,83.9
2024-03-24T05:57:04.431Z,83.5
2024-03-24T05:58:10.537Z,84.4
2024-03-24T05:59:16.642Z,83.7
2024-03-24T06:00:22.747Z,83.7
2024-03-24T06:01:28.911Z,83.1
2024-03-24T06:02:35.065Z,82.7
2024-03-24T06:03:41.170Z,83.2
2024-03-24T06:04:47.337Z,83.5
2024-03-24T06:05:53.491Z,83.2
2024-03-24T06:06:59.596Z,83
2024-03-24T06:08:05.763Z,83.3
2024-03-24T06:09:11.918Z,83.9
2024-03-24T06:10:17.039Z,83.6
2024-03-24T06:11:23.144Z,83.9
2024-03-24T06:12:29.249Z,83.6
2024-03-24T06:13:35.354Z,83.8
2024-03-24T06:14:41.468Z,83.9
2024-03-24T06:15:47.622Z,83.7
2024-03-24T06:16:53.727Z,83.5
2024-03-24T06:17:59.894Z,83
2024-03-24T06:19:06.048Z,82.5
2024-03-24T06:20:12.152Z,82.4
2024-03-24T06:21:18.319Z,82.1
2024-03-24T06:22:24.473Z,82
2024-03-24T06:23:30.557Z,81.7
2024-03-24T06:24:35.699Z,82.3
2024-03-24T06:25:41.804Z,81.2
2024-03-24T06:26:47.909Z,81.2
2024-03-24T06:27:54.023Z,81
2024-03-24T06:29:00.177Z,81.1
2024-03-24T06:30:06.282Z,81
2024-03-24T06:31:12.449Z,80.7
2024-03-24T06:32:18.602Z,80.9
2024-03-24T06:33:24.707Z,80.4
2024-03-24T06:34:30.874Z,80.6
2024-03-24T06:35:37.028Z,81
2024-03-24T06:36:43.133Z,81.1
2024-03-24T06:37:49.301Z,80
2024-03-24T06:38:54.422Z,80.2
2024-03-24T06:40:00.527Z,80
2024-03-24T06:41:06.632Z,80.2
2024-03-24T06:42:12.737Z,79.7
2024-03-24T06:43:18.841Z,79.7
2024-03-24T06:44:25.005Z,80.4
2024-03-24T06:45:31.159Z,80
2024-03-24T06:46:37.261Z,79.8
2024-03-24T06:47:43.430Z,79.7
2024-03-24T06:48:49.585Z,79.4
2024-03-24T06:49:55.690Z,79.4
2024-03-24T06:51:01.856Z,79.7
2024-03-24T06:52:08.010Z,79.7
2024-03-24T06:53:13.131Z,79
2024-03-24T06:54:19.236Z,78.6
2024-03-24T06:55:25.341Z,78.8
2024-03-24T06:56:31.447Z,78.2
2024-03-24T06:57:37.560Z,78.4
2024-03-24T06:58:43.714Z,78.3
2024-03-24T06:59:49.819Z,79
2024-03-24T07:00:55.986Z,79
2024-03-24T07:02:02.140Z,77.7
2024-03-24T07:03:08.245Z,78
2024-03-24T07:04:14.411Z,78.2
2024-03-24T07:05:20.566Z,77.3
2024-03-24T07:06:26.671Z,78.1
2024-03-24T07:07:31.792Z,77.3
2024-03-24T07:08:37.897Z,76.6
2024-03-24T07:09:44.002Z,76
2024-03-24T07:10:50.116Z,76.4
2024-03-24T07:11:56.270Z,76.2
2024-03-24T07:13:02.375Z,76.7
2024-03-24T07:14:08.542Z,75.8
2024-03-24T07:15:14.697Z,76.7
2024-03-24T07:16:20.802Z,75
2024-03-24T07:17:26.969Z,74.8
2024-03-24T07:18:33.123Z,75.5
2024-03-24T07:19:39.228Z,74.6
2024-03-24T07:20:45.395Z,75
2024-03-24T07:21:50.516Z,75.6
2024-03-24T07:22:56.621Z,75.4
2024-03-24T07:24:02.726Z,74.6
2024-03-24T07:25:08.831Z,74.2
2024-03-24T07:26:14.936Z,74.5
2024-03-24T07:27:21.099Z,74.3
2024-03-24T07:28:27.254Z,72.9
2024-03-24T07:29:33.359Z,73.9
2024-03-24T07:30:39.525Z,73.8
2024-03-24T07:31:45.680Z,73.9
2024-03-24T07:32:51.784Z,73
2024-03-24T07:33:57.952Z,72.4
2024-03-24T07:35:04.107Z,73
2024-03-24T07:36:09.228Z,72.5
2024-03-24T07:37:15.333Z,73.5
2024-03-24T07:38:21.438Z,74.1
2024-03-24T07:39:27.543Z,73.5
2024-03-24T07:40:33.657Z,73
2024-03-24T07:41:39.811Z,73.3
2024-03-24T07:42:45.916Z,73
2024-03-24T07:43:52.083Z,72.6
2024-03-24T07:44:58.237Z,72.2
2024-03-24T07:46:04.342Z,73.1
2024-03-24T07:47:10.508Z,72.3
2024-03-24T07:48:16.662Z,72.1
2024-03-24T07:49:22.767Z,73.2
2024-03-24T07:50:27.888Z,72.6
2024-03-24T07:51:33.993Z,72.5
2024-03-24T07:52:40.098Z,71.5
2024-03-24T07:53:46.213Z,71.7
2024-03-24T07:54:52.366Z,72.3
2024-03-24T07:55:58.456Z,71.9
2024-03-24T07:57:04.638Z,71.1
2024-03-24T07:58:10.792Z,70.1
2024-03-24T07:59:16.897Z,69.8
2024-03-24T08:00:23.061Z,71.2
2024-03-24T08:01:29.218Z,70.3
2024-03-24T08:02:35.323Z,69.7
2024-03-24T08:03:41.489Z,68
2024-03-24T08:04:46.610Z,68
2024-03-24T08:05:52.714Z,68.3
2024-03-24T08:06:58.819Z,68.7
2024-03-24T08:08:04.924Z,68.4
2024-03-24T08:09:11.028Z,68.6
2024-03-24T08:10:17.191Z,70.4
2024-03-24T08:11:22.317Z,71
2024-03-24T08:12:28.422Z,69.3
2024-03-24T08:13:34.527Z,70.4
2024-03-24T08:14:40.632Z,69.8
2024-03-24T08:15:46.737Z,70.3
2024-03-24T08:16:52.895Z,70.7
2024-03-24T08:17:59.049Z,70.2
2024-03-24T08:19:05.155Z,71.4
2024-03-24T08:20:11.321Z,71.4
2024-03-24T08:21:17.475Z,72.4
2024-03-24T08:22:23.580Z,71.8
2024-03-24T08:23:29.747Z,71.5
2024-03-24T08:24:35.901Z,71.2
2024-03-24T08:25:41.022Z,70.6
2024-03-24T08:26:47.127Z,71
2024-03-24T08:27:53.231Z,69.8
2024-03-24T08:28:59.336Z,69.5
2024-03-24T08:30:05.450Z,69.9
2024-03-24T08:31:11.604Z,69.3
2024-03-24T08:32:17.709Z,68
2024-03-24T08:33:23.875Z,67.8
2024-03-24T08:34:30.029Z,66.6
2024-03-24T08:35:36.133Z,66.6
2024-03-24T08:36:42.300Z,66.5
2024-03-24T08:37:48.453Z,65.9
2024-03-24T08:38:54.558Z,66
2024-03-24T08:39:59.679Z,65.7
2024-03-24T08:41:05.784Z,65.1
2024-03-24T08:42:11.889Z,65.3
2024-03-24T08:43:18.002Z,65.1
2024-03-24T08:44:24.157Z,65.2
2024-03-24T08:45:30.258Z,64.8
2024-03-24T08:46:36.428Z,64.4
2024-03-24T08:47:42.582Z,64.8
2024-03-24T08:48:48.687Z,64.6
2024-03-24T08:51:01.007Z,64.2
2024-03-24T08:52:07.111Z,64.2
2024-03-24T08:53:13.278Z,64.5
2024-03-24T08:54:18.398Z,65.3
2024-03-24T08:55:24.503Z,65.3
2024-03-24T08:56:30.608Z,64.8
2024-03-24T08:57:36.712Z,64.8
2024-03-24T08:58:42.817Z,64.2
2024-03-24T08:59:48.981Z,65.2
2024-03-24T09:00:55.135Z,64.8
2024-03-24T09:02:01.239Z,65.6
2024-03-24T09:03:07.406Z,65
2024-03-24T09:04:13.560Z,65.6
2024-03-24T09:05:19.665Z,68
2024-03-24T09:06:25.831Z,67.2
2024-03-24T09:07:31.985Z,67.7
2024-03-24T09:08:37.106Z,68.8
2024-03-24T09:09:43.210Z,70.4
2024-03-24T09:10:49.315Z,70
2024-03-24T09:11:55.420Z,71.3
2024-03-24T09:13:01.534Z,73
2024-03-24T09:14:07.688Z,74.9
2024-03-24T09:15:13.792Z,77.1
2024-03-24T09:16:19.959Z,76.8
2024-03-24T09:17:26.113Z,79.3
2024-03-24T09:18:32.217Z,80
2024-03-24T09:19:38.385Z,81.9
2024-03-24T09:20:44.538Z,82.7
2024-03-24T09:21:50.643Z,83.8
2024-03-24T09:22:55.764Z,84.3
2024-03-24T09:24:01.868Z,85.1
2024-03-24T09:25:07.973Z,85.1
2024-03-24T09:26:14.088Z,85.8
2024-03-24T09:27:20.243Z,86
2024-03-24T09:28:26.348Z,87
2024-03-24T09:29:32.515Z,89
2024-03-24T09:30:38.669Z,89.7
2024-03-24T09:31:44.774Z,86.6
2024-03-24T09:32:50.941Z,86.9
2024-03-24T09:33:57.095Z,87.3
2024-03-24T09:35:03.200Z,88.5
2024-03-24T09:36:09.368Z,88.3
2024-03-24T09:37:14.489Z,87.5
2024-03-24T09:38:20.594Z,87.9
2024-03-24T09:40:32.805Z,84.6
2024-03-24T09:41:38.910Z,82.7
2024-03-24T09:42:45.073Z,82.5
2024-03-24T09:43:51.227Z,82.3
2024-03-24T09:44:57.333Z,81.5
2024-03-24T09:46:03.499Z,80.5
2024-03-24T09:47:09.654Z,80.8
2024-03-24T09:48:15.760Z,81.9
2024-03-24T09:49:21.927Z,80.3
2024-03-24T09:50:28.081Z,79.2
2024-03-24T09:51:33.202Z,80.2
2024-03-24T09:52:39.307Z,79.5
2024-03-24T09:53:45.412Z,79.9
2024-03-24T09:54:51.517Z,79.9
2024-03-24T09:55:57.632Z,77.7
2024-03-24T09:57:03.786Z,78.5
2024-03-24T09:58:09.892Z,78.3
2024-03-24T09:59:16.059Z,79.5
2024-03-24T10:00:22.213Z,77.8
2024-03-24T10:01:28.318Z,79.1
2024-03-24T10:02:34.485Z,79.9
2024-03-24T10:03:40.639Z,80.6
2024-03-24T10:04:46.744Z,78.8
2024-03-24T10:05:51.865Z,78.6
2024-03-24T10:06:57.971Z,78.3
2024-03-24T10:08:04.076Z,80
2024-03-24T10:09:10.191Z,78.3
2024-03-24T10:10:16.345Z,78.8
2024-03-24T10:11:22.451Z,79.9
2024-03-24T10:12:28.617Z,79.5
2024-03-24T10:13:34.772Z,79.6
2024-03-24T10:14:40.877Z,79.6
2024-03-24T10:15:47.044Z,79.8
2024-03-24T10:16:53.198Z,81.5
2024-03-24T10:17:59.303Z,80.9
2024-03-24T10:19:05.470Z,81.6
2024-03-24T10:20:10.591Z,81.3
2024-03-24T10:21:16.696Z,80.9
2024-03-24T10:22:22.801Z,79.7
2024-03-24T10:23:28.906Z,81.3
2024-03-24T10:24:35.011Z,79.5
2024-03-24T10:25:41.175Z,80.3
2024-03-24T10:26:47.330Z,80.3
2024-03-24T10:27:53.435Z,80.3
2024-03-24T10:28:59.602Z,79.9
2024-03-24T10:30:05.756Z,79.6
2024-03-24T10:31:11.861Z,79.7
2024-03-24T10:32:18.028Z,81.3
2024-03-24T10:33:24.183Z,80.6
2024-03-24T10:34:29.305Z,82.4
2024-03-24T10:35:35.410Z,81.3
2024-03-24T10:36:41.515Z,82.5
2024-03-24T10:37:47.620Z,81.3
2024-03-24T10:38:53.734Z,82.8
2024-03-24T10:39:59.889Z,82.8
2024-03-24T10:41:05.994Z,83.8
2024-03-24T10:42:12.161Z,84.4
2024-03-24T10:43:18.315Z,84.9
2024-03-24T10:44:24.423Z,86
2024-03-24T10:45:30.587Z,85.9
2024-03-24T10:46:36.741Z,87
2024-03-24T10:47:42.846Z,86.3
2024-03-24T10:48:47.968Z,86.5
2024-03-24T10:49:54.073Z,86.3
2024-03-24T10:51:00.178Z,86.3
2024-03-24T10:52:06.292Z,85
2024-03-24T10:53:12.446Z,83.3
2024-03-24T10:54:18.551Z,85.4
2024-03-24T10:55:24.719Z,86.3
2024-03-24T10:56:30.872Z,85.5
2024-03-24T10:57:36.977Z,85.8
2024-03-24T10:58:43.144Z,87.2
2024-03-24T10:59:49.298Z,87
2024-03-24T11:00:55.403Z,88
2024-03-24T11:02:01.570Z,87.2
2024-03-24T11:03:06.691Z,86.3
2024-03-24T11:04:12.796Z,86.7
2024-03-24T11:05:18.902Z,85
2024-03-24T11:06:25.007Z,85.7
2024-03-24T11:07:31.112Z,87
2024-03-24T11:08:37.275Z,86.7
2024-03-24T11:09:43.430Z,87.8
2024-03-24T11:10:49.535Z,87.1
2024-03-24T11:11:55.702Z,87
2024-03-24T11:13:01.857Z,85.9
2024-03-24T11:14:07.962Z,86.8
2024-03-24T11:15:14.129Z,86.2
2024-03-24T11:16:20.284Z,85.7
2024-03-24T11:17:25.405Z,85.8
2024-03-24T11:18:31.510Z,86
2024-03-24T11:19:37.615Z,86
2024-03-24T11:20:43.720Z,85.9
2024-03-24T11:21:49.835Z,85.4
2024-03-24T11:22:55.989Z,86.9
2024-03-24T11:24:02.095Z,84
2024-03-24T11:25:08.261Z,84
2024-03-24T11:26:14.415Z,84
2024-03-24T11:27:20.520Z,83.2
2024-03-24T11:28:26.687Z,83.9
2024-03-24T11:29:32.841Z,84.8
2024-03-24T11:30:38.947Z,83.8
2024-03-24T11:31:44.068Z,84.5
2024-03-24T11:32:50.173Z,83.8
2024-03-24T11:33:56.268Z,81.8
2024-03-24T11:35:02.392Z,82.3
2024-03-24T11:36:08.546Z,82
2024-03-24T11:37:14.651Z,83
2024-03-24T11:38:20.808Z,80.5
2024-03-24T11:39:26.973Z,80.3
2024-03-24T11:40:33.077Z,78.3
2024-03-24T11:41:39.244Z,79.8
2024-03-24T11:42:45.399Z,78.9
2024-03-24T11:43:51.504Z,79.5
2024-03-24T11:44:57.670Z,80.5
2024-03-24T11:46:02.791Z,79.1
2024-03-24T11:47:08.896Z,78.5
2024-03-24T11:48:15.001Z,76.6
2024-03-24T11:49:21.106Z,76.9
2024-03-24T11:50:27.211Z,76.5
2024-03-24T11:51:33.375Z,77.1
2024-03-24T11:52:38.502Z,76.3
2024-03-24T11:53:44.607Z,78.2
2024-03-24T11:54:50.712Z,77.2
2024-03-24T11:55:56.817Z,76.8
2024-03-24T11:57:02.922Z,76.2
2024-03-24T11:58:09.080Z,74.8
2024-03-24T11:59:15.234Z,75.1
2024-03-24T12:00:21.339Z,74.6
2024-03-24T12:01:27.506Z,75
2024-03-24T12:02:33.660Z,74
2024-03-24T12:03:39.765Z,74.8
2024-03-24T12:04:45.932Z,75.2
2024-03-24T12:05:52.086Z,75.7
2024-03-24T12:06:57.207Z,75.1
2024-03-24T12:08:03.312Z,76.1
2024-03-24T12:09:09.417Z,75.8
2024-03-24T12:10:15.522Z,73.8
2024-03-24T12:11:21.637Z,73
2024-03-24T12:12:27.791Z,74.3
2024-03-24T12:13:33.896Z,74
2024-03-24T12:14:40.062Z,74
2024-03-24T12:15:46.217Z,75.2
2024-03-24T12:16:52.322Z,73.4
2024-03-24T12:17:58.489Z,72.6
2024-03-24T12:19:04.643Z,73.4
2024-03-24T12:20:10.748Z,75.1
2024-03-24T12:21:15.869Z,73.6
2024-03-24T12:22:21.974Z,73.8
2024-03-24T12:23:28.079Z,73
2024-03-24T12:24:34.192Z,73.5
2024-03-24T12:25:40.346Z,75.1
2024-03-24T12:26:46.451Z,73.7
2024-03-24T12:27:52.613Z,72.5
2024-03-24T12:28:58.771Z,73.6
2024-03-24T12:30:04.875Z,74.9
2024-03-24T12:31:11.042Z,73.8
2024-03-24T12:32:17.196Z,73.8
2024-03-24T12:33:23.300Z,74.8
2024-03-24T12:34:29.467Z,77.5
2024-03-24T12:35:34.587Z,76.8
2024-03-24T12:36:40.692Z,76.3
2024-03-24T12:37:46.797Z,77
2024-03-24T12:38:52.902Z,76.1
2024-03-24T12:39:59.007Z,75.2
2024-03-24T12:41:05.172Z,76.3
2024-03-24T12:42:11.325Z,75.8
2024-03-24T12:43:17.430Z,75.8
2024-03-24T12:44:23.597Z,78.8
2024-03-24T12:45:29.751Z,79.4
2024-03-24T12:46:35.855Z,79.1
2024-03-24T12:47:42.022Z,80
2024-03-24T12:48:48.176Z,79.2
2024-03-24T12:49:53.296Z,79.7
2024-03-24T12:50:59.402Z,79.2
2024-03-24T12:52:05.507Z,81.3
2024-03-24T12:53:11.612Z,83
2024-03-24T12:54:17.726Z,82.5
2024-03-24T12:55:23.880Z,80.9
2024-03-24T12:56:29.985Z,80.2
2024-03-24T12:57:36.151Z,81.2
2024-03-24T12:58:42.306Z,81.8
2024-03-24T12:59:48.411Z,79.4
2024-03-24T13:00:54.577Z,78.6
2024-03-24T13:02:00.731Z,79.3
2024-03-24T13:03:06.836Z,79.5
2024-03-24T13:04:11.956Z,79
2024-03-24T13:05:18.061Z,80.4
2024-03-24T13:06:24.166Z,76.5
2024-03-24T13:07:30.280Z,76.5
2024-03-24T13:08:36.434Z,73.7
2024-03-24T13:09:42.539Z,73.7
2024-03-24T13:10:48.705Z,72.8
2024-03-24T13:11:54.860Z,70.5
2024-03-24T13:13:00.964Z,72.2
2024-03-24T13:14:07.131Z,71.4
2024-03-24T13:15:13.285Z,71.3
2024-03-24T13:16:19.389Z,71.9
2024-03-24T13:17:25.555Z,70.5
2024-03-24T13:18:30.676Z,69
2024-03-24T13:19:36.781Z,71.5
2024-03-24T13:20:42.885Z,70
2024-03-24T13:21:48.990Z,70.7
2024-03-24T13:22:55.094Z,69
2024-03-24T13:24:01.257Z,69.5
2024-03-24T13:25:07.411Z,68.7
2024-03-24T13:26:13.515Z,69
2024-03-24T13:27:19.681Z,69.8
2024-03-24T13:28:25.835Z,71.1
2024-03-24T13:29:31.940Z,72.4
2024-03-24T13:30:38.106Z,71.7
2024-03-24T13:31:44.260Z,71.9
2024-03-24T13:32:49.380Z,72.4
2024-03-24T13:33:55.485Z,73.3
2024-03-24T13:35:01.589Z,72.3
2024-03-24T13:36:07.694Z,72.9
2024-03-24T13:37:13.808Z,72.9
2024-03-24T13:38:19.962Z,74
2024-03-24T13:39:26.067Z,73.4
2024-03-24T13:40:32.234Z,73.1
2024-03-24T13:41:38.388Z,72.9
2024-03-24T13:42:44.492Z,73.7
2024-03-24T13:43:50.659Z,73.7
2024-03-24T13:44:56.813Z,73.7
2024-03-24T13:46:02.918Z,74
2024-03-24T13:47:08.039Z,73.5
2024-03-24T13:48:14.144Z,73.9
2024-03-24T13:49:20.248Z,71.6
2024-03-24T13:50:26.362Z,71.8
2024-03-24T13:51:32.516Z,70.7
2024-03-24T13:52:38.621Z,71.4
2024-03-24T13:53:44.787Z,71
2024-03-24T13:54:50.940Z,69.1
2024-03-24T13:55:57.045Z,68.8
2024-03-24T13:57:03.212Z,68.3
2024-03-24T13:58:09.365Z,68.2
2024-03-24T13:59:15.469Z,66.6
2024-03-24T14:00:21.635Z,67.8
2024-03-24T14:01:26.756Z,65.8
2024-03-24T14:02:32.861Z,63.1
2024-03-24T14:03:38.965Z,63.4
2024-03-24T14:04:45.070Z,62.1
2024-03-24T14:05:51.174Z,62.9
2024-03-24T14:06:57.338Z,62.4
2024-03-24T14:08:03.491Z,61.2
2024-03-24T14:09:09.595Z,61.4
2024-03-24T14:10:15.761Z,59.2
2024-03-24T14:11:21.914Z,60.1
2024-03-24T14:12:28.019Z,59.4
2024-03-24T14:13:34.185Z,57.8
2024-03-24T14:14:40.339Z,59.8
2024-03-24T14:15:45.459Z,59.8
2024-03-24T14:16:51.564Z,61.3
2024-03-24T14:17:57.669Z,61
2024-03-24T14:19:03.773Z,63.7
2024-03-24T14:20:09.886Z,63.3
2024-03-24T14:21:16.040Z,63.6
2024-03-24T14:22:22.141Z,63.9
2024-03-24T14:23:28.311Z,64.8
2024-03-24T14:24:34.465Z,65.6
2024-03-24T14:25:40.574Z,66.8
2024-03-24T14:26:46.726Z,65
2024-03-24T14:27:52.889Z,63.8
2024-03-24T14:28:58.994Z,62.5
2024-03-24T14:30:04.115Z,60.5
2024-03-24T14:31:10.219Z,60.9
2024-03-24T14:32:16.323Z,61.3
2024-03-24T14:33:22.437Z,59.9
2024-03-24T14:34:28.591Z,58.1
2024-03-24T14:35:34.695Z,58.6
2024-03-24T14:36:40.861Z,57.1
2024-03-24T14:37:47.014Z,58.2
2024-03-24T14:38:53.119Z,57.1
2024-03-24T14:39:59.285Z,58.8
2024-03-24T14:41:05.438Z,60.6
2024-03-24T14:42:11.543Z,61.3
2024-03-24T14:43:17.709Z,61.8
2024-03-24T14:44:22.829Z,63.2
2024-03-24T14:45:28.934Z,65.5
2024-03-24T14:46:35.038Z,63.2
2024-03-24T14:47:41.143Z,64.4
2024-03-24T14:48:47.248Z,63.6